ZSAPS FAGG-FACT
Flight info
| Callsign | ZSAPS |
|---|---|
| Flight time | 0h 59m |
| Altitude | 23000 |
| Route | GRV DCT ETBUL UQ49 ESRUK UQ51 GETEN GETEN1C |
| Aircraft | PC12/L-SDFGRWY/S |
Departure
| Time | 2026-04-25 11:03 |
|---|---|
| Airport | George Airport (FAGG) |
Arrival
| Time | 2026-04-25 12:02 |
|---|---|
| Airport | Cape Town International Airport (FACT) |
| Time | Latitude | Longitude | Altitude | Speed | Heading |
|---|---|---|---|---|---|
| 2026-04-25 10:35 | -34.00121 | 22.38091 | 635 ft | 0 kts | 86° |
| 2026-04-25 10:58 | -34.00136 | 22.38106 | 635 ft | 3 kts | 191° |
| 2026-04-25 10:58 | -34.00146 | 22.38092 | 635 ft | 7 kts | 256° |
| 2026-04-25 10:59 | -34.00192 | 22.38048 | 637 ft | 11 kts | 166° |
| 2026-04-25 10:59 | -34.00262 | 22.38099 | 639 ft | 12 kts | 134° |
| 2026-04-25 10:59 | -34.00300 | 22.38198 | 639 ft | 14 kts | 103° |
| 2026-04-25 10:59 | -34.00324 | 22.38308 | 641 ft | 15 kts | 90° |
| 2026-04-25 11:00 | -34.00323 | 22.38444 | 642 ft | 17 kts | 89° |
| 2026-04-25 11:00 | -34.00319 | 22.38598 | 643 ft | 19 kts | 83° |
| 2026-04-25 11:00 | -34.00312 | 22.38765 | 644 ft | 20 kts | 88° |
| 2026-04-25 11:00 | -34.00347 | 22.38903 | 650 ft | 15 kts | 144° |
| 2026-04-25 11:01 | -34.00424 | 22.38918 | 654 ft | 10 kts | 173° |
| 2026-04-25 11:01 | -34.00487 | 22.38922 | 654 ft | 9 kts | 179° |
| 2026-04-25 11:01 | -34.00521 | 22.38884 | 654 ft | 8 kts | 278° |
| 2026-04-25 11:01 | -34.00521 | 22.38864 | 652 ft | 0 kts | 268° |
| 2026-04-25 11:02 | -34.00522 | 22.38808 | 652 ft | 26 kts | 269° |
| 2026-04-25 11:02 | -34.00535 | 22.38354 | 647 ft | 81 kts | 270° |
| 2026-04-25 11:02 | -34.00559 | 22.37534 | 703 ft | 112 kts | 266° |
| 2026-04-25 11:03 | -34.00603 | 22.36573 | 1075 ft | 119 kts | 268° |
| 2026-04-25 11:03 | -34.00592 | 22.35501 | 1495 ft | 134 kts | 272° |
| 2026-04-25 11:03 | -34.00539 | 22.34294 | 1858 ft | 152 kts | 270° |
| 2026-04-25 11:03 | -34.00544 | 22.33020 | 2478 ft | 151 kts | 268° |
| 2026-04-25 11:04 | -34.00540 | 22.31753 | 3048 ft | 152 kts | 268° |
| 2026-04-25 11:04 | -34.00514 | 22.30509 | 3913 ft | 144 kts | 270° |
| 2026-04-25 11:04 | -34.00516 | 22.29300 | 4636 ft | 143 kts | 269° |
| 2026-04-25 11:04 | -34.00541 | 22.28493 | 5102 ft | 141 kts | 270° |
| 2026-04-25 11:05 | -34.00660 | 22.26897 | 5817 ft | 147 kts | 268° |
| 2026-04-25 11:05 | -34.00797 | 22.25684 | 6475 ft | 145 kts | 268° |
| 2026-04-25 11:05 | -34.00942 | 22.24475 | 6993 ft | 147 kts | 269° |
| 2026-04-25 11:05 | -34.01088 | 22.23271 | 7504 ft | 145 kts | 268° |
| 2026-04-25 11:06 | -34.01233 | 22.22064 | 7932 ft | 146 kts | 269° |
| 2026-04-25 11:06 | -34.01378 | 22.20862 | 8417 ft | 144 kts | 268° |
| 2026-04-25 11:06 | -34.01515 | 22.19661 | 8876 ft | 146 kts | 269° |
| 2026-04-25 11:06 | -34.01652 | 22.18462 | 9354 ft | 143 kts | 268° |
| 2026-04-25 11:07 | -34.01788 | 22.17266 | 9777 ft | 145 kts | 268° |
| 2026-04-25 11:07 | -34.01914 | 22.16052 | 10189 ft | 147 kts | 269° |
| 2026-04-25 11:07 | -34.02041 | 22.14825 | 10571 ft | 149 kts | 268° |
| 2026-04-25 11:07 | -34.02157 | 22.13568 | 10921 ft | 152 kts | 268° |
| 2026-04-25 11:08 | -34.02267 | 22.12291 | 11306 ft | 152 kts | 268° |
| 2026-04-25 11:08 | -34.02367 | 22.11023 | 11661 ft | 155 kts | 268° |
| 2026-04-25 11:08 | -34.02462 | 22.09717 | 12023 ft | 157 kts | 269° |
| 2026-04-25 11:08 | -34.02553 | 22.08392 | 12387 ft | 160 kts | 268° |
| 2026-04-25 11:09 | -34.02645 | 22.07046 | 12810 ft | 160 kts | 269° |
| 2026-04-25 11:09 | -34.02735 | 22.05713 | 13187 ft | 159 kts | 269° |
| 2026-04-25 11:09 | -34.02826 | 22.04363 | 13547 ft | 162 kts | 268° |
| 2026-04-25 11:09 | -34.02918 | 22.03014 | 13918 ft | 161 kts | 269° |
| 2026-04-25 11:10 | -34.03010 | 22.01656 | 14259 ft | 163 kts | 269° |
| 2026-04-25 11:10 | -34.03074 | 22.00749 | 14477 ft | 166 kts | 269° |
| 2026-04-25 11:10 | -34.03204 | 21.98907 | 14985 ft | 164 kts | 269° |
| 2026-04-25 11:10 | -34.03306 | 21.97524 | 15312 ft | 164 kts | 268° |
| 2026-04-25 11:11 | -34.03410 | 21.96142 | 15604 ft | 166 kts | 269° |
| 2026-04-25 11:11 | -34.03512 | 21.94744 | 15925 ft | 168 kts | 268° |
| 2026-04-25 11:11 | -34.03618 | 21.93353 | 16228 ft | 168 kts | 269° |
| 2026-04-25 11:11 | -34.03720 | 21.91938 | 16551 ft | 169 kts | 269° |
| 2026-04-25 11:12 | -34.03825 | 21.90533 | 16889 ft | 168 kts | 269° |
| 2026-04-25 11:12 | -34.03930 | 21.89128 | 17155 ft | 171 kts | 268° |
| 2026-04-25 11:12 | -34.04038 | 21.87706 | 17434 ft | 171 kts | 269° |
| 2026-04-25 11:12 | -34.04149 | 21.86273 | 17767 ft | 171 kts | 269° |
| 2026-04-25 11:13 | -34.04266 | 21.84847 | 18049 ft | 173 kts | 268° |
| 2026-04-25 11:13 | -34.04378 | 21.83411 | 18356 ft | 172 kts | 269° |
| 2026-04-25 11:13 | -34.04492 | 21.81967 | 18615 ft | 173 kts | 269° |
| 2026-04-25 11:13 | -34.04603 | 21.80535 | 18886 ft | 175 kts | 269° |
| 2026-04-25 11:14 | -34.04674 | 21.79063 | 19178 ft | 177 kts | 273° |
| 2026-04-25 11:14 | -34.04656 | 21.77581 | 19497 ft | 175 kts | 273° |
| 2026-04-25 11:14 | -34.04659 | 21.76094 | 19778 ft | 179 kts | 272° |
| 2026-04-25 11:14 | -34.04675 | 21.74582 | 20092 ft | 179 kts | 272° |
| 2026-04-25 11:15 | -34.04700 | 21.73077 | 20376 ft | 179 kts | 272° |
| 2026-04-25 11:15 | -34.04721 | 21.71566 | 20584 ft | 182 kts | 272° |
| 2026-04-25 11:15 | -34.04741 | 21.70035 | 20850 ft | 183 kts | 272° |
| 2026-04-25 11:15 | -34.04763 | 21.68500 | 21148 ft | 184 kts | 272° |
| 2026-04-25 11:16 | -34.04800 | 21.65403 | 21674 ft | 186 kts | 272° |
| 2026-04-25 11:16 | -34.04820 | 21.63834 | 21956 ft | 186 kts | 272° |
| 2026-04-25 11:16 | -34.04838 | 21.62275 | 22185 ft | 187 kts | 272° |
| 2026-04-25 11:17 | -34.04856 | 21.60717 | 22441 ft | 188 kts | 272° |
| 2026-04-25 11:17 | -34.04877 | 21.59145 | 22667 ft | 187 kts | 272° |
| 2026-04-25 11:17 | -34.04894 | 21.57566 | 22859 ft | 190 kts | 272° |
| 2026-04-25 11:17 | -34.04912 | 21.55955 | 23152 ft | 192 kts | 272° |
| 2026-04-25 11:18 | -34.04921 | 21.54309 | 23095 ft | 206 kts | 274° |
| 2026-04-25 11:18 | -34.04869 | 21.52518 | 23128 ft | 216 kts | 275° |
| 2026-04-25 11:18 | -34.04765 | 21.50778 | 23695 ft | 202 kts | 277° |
| 2026-04-25 11:18 | -34.04617 | 21.48991 | 23515 ft | 218 kts | 278° |
| 2026-04-25 11:19 | -34.04450 | 21.47119 | 23252 ft | 233 kts | 278° |
| 2026-04-25 11:19 | -34.04272 | 21.45108 | 22942 ft | 249 kts | 278° |
| 2026-04-25 11:19 | -34.04094 | 21.43025 | 22898 ft | 250 kts | 277° |
| 2026-04-25 11:19 | -34.03916 | 21.40936 | 22891 ft | 251 kts | 278° |
| 2026-04-25 11:20 | -34.03744 | 21.38859 | 22890 ft | 248 kts | 277° |
| 2026-04-25 11:20 | -34.03570 | 21.36788 | 22892 ft | 248 kts | 278° |
| 2026-04-25 11:20 | -34.03399 | 21.34739 | 22890 ft | 250 kts | 278° |
| 2026-04-25 11:20 | -34.03223 | 21.32663 | 22897 ft | 249 kts | 278° |
| 2026-04-25 11:21 | -34.03041 | 21.30581 | 22885 ft | 250 kts | 278° |
| 2026-04-25 11:21 | -34.02853 | 21.28493 | 22877 ft | 250 kts | 278° |
| 2026-04-25 11:21 | -34.02664 | 21.26412 | 22877 ft | 247 kts | 278° |
| 2026-04-25 11:21 | -34.02563 | 21.24352 | 22877 ft | 247 kts | 271° |
| 2026-04-25 11:22 | -34.02665 | 21.22271 | 22876 ft | 250 kts | 269° |
| 2026-04-25 11:22 | -34.02740 | 21.20883 | 22877 ft | 250 kts | 270° |
| 2026-04-25 11:22 | -34.02817 | 21.18064 | 22876 ft | 254 kts | 271° |
| 2026-04-25 11:22 | -34.02856 | 21.15939 | 22875 ft | 253 kts | 271° |
| 2026-04-25 11:23 | -34.02906 | 21.13824 | 22873 ft | 253 kts | 271° |
| 2026-04-25 11:23 | -34.02959 | 21.11733 | 22874 ft | 253 kts | 271° |
| 2026-04-25 11:23 | -34.03011 | 21.09616 | 22874 ft | 253 kts | 271° |
| 2026-04-25 11:23 | -34.03064 | 21.07496 | 22872 ft | 252 kts | 271° |
| 2026-04-25 11:24 | -34.03115 | 21.05397 | 22873 ft | 250 kts | 271° |
| 2026-04-25 11:24 | -34.03163 | 21.03286 | 22874 ft | 250 kts | 271° |
| 2026-04-25 11:24 | -34.03211 | 21.01188 | 22875 ft | 250 kts | 271° |
| 2026-04-25 11:24 | -34.03255 | 20.99106 | 22872 ft | 249 kts | 271° |
| 2026-04-25 11:25 | -34.03308 | 20.97017 | 22872 ft | 251 kts | 271° |
| 2026-04-25 11:25 | -34.03356 | 20.94913 | 22874 ft | 251 kts | 271° |
| 2026-04-25 11:25 | -34.03401 | 20.92808 | 22875 ft | 249 kts | 271° |
| 2026-04-25 11:25 | -34.03452 | 20.90732 | 22874 ft | 248 kts | 271° |
| 2026-04-25 11:26 | -34.03498 | 20.88664 | 22872 ft | 246 kts | 271° |
| 2026-04-25 11:26 | -34.03547 | 20.86596 | 22872 ft | 244 kts | 271° |
| 2026-04-25 11:26 | -34.03591 | 20.84558 | 22872 ft | 243 kts | 272° |
| 2026-04-25 11:26 | -34.03640 | 20.82509 | 22871 ft | 245 kts | 272° |
| 2026-04-25 11:27 | -34.03679 | 20.80461 | 22879 ft | 245 kts | 272° |
| 2026-04-25 11:27 | -34.03731 | 20.78400 | 22884 ft | 247 kts | 272° |
| 2026-04-25 11:27 | -34.03774 | 20.76345 | 22886 ft | 248 kts | 272° |
| 2026-04-25 11:27 | -34.03802 | 20.74938 | 22886 ft | 248 kts | 272° |
| 2026-04-25 11:28 | -34.03862 | 20.72189 | 22884 ft | 248 kts | 271° |
| 2026-04-25 11:28 | -34.03909 | 20.70079 | 22883 ft | 250 kts | 272° |
| 2026-04-25 11:28 | -34.03953 | 20.68004 | 22888 ft | 252 kts | 272° |
| 2026-04-25 11:28 | -34.03996 | 20.65895 | 22886 ft | 250 kts | 271° |
| 2026-04-25 11:29 | -34.04042 | 20.63804 | 22886 ft | 249 kts | 272° |
| 2026-04-25 11:29 | -34.04082 | 20.61717 | 22885 ft | 249 kts | 272° |
| 2026-04-25 11:29 | -34.04121 | 20.59638 | 22881 ft | 248 kts | 272° |
| 2026-04-25 11:29 | -34.04166 | 20.57568 | 22884 ft | 246 kts | 271° |
| 2026-04-25 11:30 | -34.04205 | 20.55492 | 22892 ft | 249 kts | 272° |
| 2026-04-25 11:30 | -34.04244 | 20.53413 | 22893 ft | 248 kts | 272° |
| 2026-04-25 11:30 | -34.04289 | 20.51347 | 22892 ft | 247 kts | 272° |
| 2026-04-25 11:30 | -34.04331 | 20.49288 | 22891 ft | 244 kts | 272° |
| 2026-04-25 11:31 | -34.04360 | 20.47257 | 22890 ft | 246 kts | 272° |
| 2026-04-25 11:31 | -34.04399 | 20.45204 | 22890 ft | 245 kts | 272° |
| 2026-04-25 11:31 | -34.04439 | 20.43154 | 22892 ft | 244 kts | 272° |
| 2026-04-25 11:31 | -34.04482 | 20.41106 | 22890 ft | 244 kts | 272° |
| 2026-04-25 11:32 | -34.04524 | 20.39062 | 22885 ft | 243 kts | 272° |
| 2026-04-25 11:32 | -34.04558 | 20.37045 | 22892 ft | 240 kts | 272° |
| 2026-04-25 11:32 | -34.04595 | 20.35024 | 22893 ft | 242 kts | 272° |
| 2026-04-25 11:32 | -34.04633 | 20.33003 | 22904 ft | 240 kts | 272° |
| 2026-04-25 11:33 | -34.04669 | 20.30983 | 22904 ft | 241 kts | 272° |
| 2026-04-25 11:33 | -34.04706 | 20.28962 | 22904 ft | 241 kts | 272° |
| 2026-04-25 11:33 | -34.04740 | 20.26930 | 22906 ft | 243 kts | 272° |
| 2026-04-25 11:33 | -34.04779 | 20.24888 | 22907 ft | 244 kts | 272° |
| 2026-04-25 11:34 | -34.04819 | 20.22836 | 22907 ft | 245 kts | 272° |
| 2026-04-25 11:34 | -34.04850 | 20.20780 | 22907 ft | 246 kts | 272° |
| 2026-04-25 11:34 | -34.04869 | 20.19419 | 22908 ft | 246 kts | 272° |
| 2026-04-25 11:34 | -34.04913 | 20.16675 | 22906 ft | 246 kts | 272° |
| 2026-04-25 11:35 | -34.04955 | 20.14616 | 22904 ft | 245 kts | 272° |
| 2026-04-25 11:35 | -34.04979 | 20.13229 | 22905 ft | 244 kts | 272° |
| 2026-04-25 11:35 | -34.05017 | 20.10509 | 22908 ft | 245 kts | 272° |
| 2026-04-25 11:35 | -34.05040 | 20.09123 | 22909 ft | 245 kts | 272° |
| 2026-04-25 11:36 | -34.05074 | 20.07096 | 22910 ft | 245 kts | 272° |
| 2026-04-25 11:36 | -34.05117 | 20.04350 | 22910 ft | 245 kts | 272° |
| 2026-04-25 11:36 | -34.05139 | 20.02990 | 22912 ft | 245 kts | 272° |
| 2026-04-25 11:36 | -34.05170 | 20.00932 | 22905 ft | 246 kts | 272° |
| 2026-04-25 11:37 | -34.05212 | 19.98196 | 22912 ft | 247 kts | 272° |
| 2026-04-25 11:37 | -34.05235 | 19.96800 | 22902 ft | 247 kts | 272° |
| 2026-04-25 11:37 | -34.05267 | 19.94730 | 22911 ft | 247 kts | 272° |
| 2026-04-25 11:37 | -34.05297 | 19.92671 | 22920 ft | 244 kts | 272° |
| 2026-04-25 11:38 | -34.05327 | 19.90624 | 22920 ft | 245 kts | 272° |
| 2026-04-25 11:38 | -34.05357 | 19.88573 | 22916 ft | 245 kts | 272° |
| 2026-04-25 11:38 | -34.05386 | 19.86517 | 22912 ft | 246 kts | 272° |
| 2026-04-25 11:38 | -34.05414 | 19.84413 | 22428 ft | 262 kts | 272° |
| 2026-04-25 11:39 | -34.05443 | 19.82168 | 21931 ft | 267 kts | 272° |
| 2026-04-25 11:39 | -34.05475 | 19.79979 | 21416 ft | 257 kts | 272° |
| 2026-04-25 11:39 | -34.05506 | 19.77873 | 20923 ft | 247 kts | 272° |
| 2026-04-25 11:39 | -34.05534 | 19.75826 | 20424 ft | 241 kts | 273° |
| 2026-04-25 11:40 | -34.05560 | 19.73818 | 19922 ft | 238 kts | 272° |
| 2026-04-25 11:40 | -34.05586 | 19.71835 | 19415 ft | 234 kts | 272° |
| 2026-04-25 11:40 | -34.05611 | 19.69890 | 18919 ft | 230 kts | 272° |
| 2026-04-25 11:40 | -34.05637 | 19.67965 | 18422 ft | 228 kts | 272° |
| 2026-04-25 11:41 | -34.05661 | 19.66059 | 17922 ft | 227 kts | 273° |
| 2026-04-25 11:41 | -34.05684 | 19.64164 | 17418 ft | 225 kts | 273° |
| 2026-04-25 11:41 | -34.05707 | 19.62289 | 16924 ft | 223 kts | 273° |
| 2026-04-25 11:41 | -34.05730 | 19.60422 | 16425 ft | 222 kts | 273° |
| 2026-04-25 11:42 | -34.05621 | 19.58595 | 15977 ft | 214 kts | 274° |
| 2026-04-25 11:42 | -34.06038 | 19.56952 | 15962 ft | 203 kts | 242° |
| 2026-04-25 11:42 | -34.06917 | 19.55720 | 15954 ft | 185 kts | 233° |
| 2026-04-25 11:42 | -34.07797 | 19.54655 | 15943 ft | 178 kts | 232° |
| 2026-04-25 11:43 | -34.08682 | 19.53596 | 15956 ft | 182 kts | 233° |
| 2026-04-25 11:43 | -34.09601 | 19.52492 | 15962 ft | 190 kts | 233° |
| 2026-04-25 11:43 | -34.10566 | 19.51326 | 15961 ft | 204 kts | 232° |
| 2026-04-25 11:43 | -34.11590 | 19.50065 | 15962 ft | 216 kts | 232° |
| 2026-04-25 11:44 | -34.12645 | 19.48753 | 15963 ft | 225 kts | 233° |
| 2026-04-25 11:44 | -34.13732 | 19.47360 | 15963 ft | 228 kts | 237° |
| 2026-04-25 11:44 | -34.14390 | 19.45671 | 15964 ft | 221 kts | 261° |
| 2026-04-25 11:44 | -34.14643 | 19.43834 | 15962 ft | 223 kts | 266° |
| 2026-04-25 11:45 | -34.14829 | 19.41965 | 15960 ft | 226 kts | 268° |
| 2026-04-25 11:45 | -34.15007 | 19.40040 | 15639 ft | 234 kts | 268° |
| 2026-04-25 11:45 | -34.15183 | 19.38074 | 15264 ft | 237 kts | 268° |
| 2026-04-25 11:45 | -34.15358 | 19.36095 | 14889 ft | 238 kts | 268° |
| 2026-04-25 11:46 | -34.15533 | 19.34104 | 14509 ft | 238 kts | 268° |
| 2026-04-25 11:46 | -34.15707 | 19.32110 | 14139 ft | 238 kts | 268° |
| 2026-04-25 11:46 | -34.15918 | 19.30132 | 13765 ft | 238 kts | 263° |
| 2026-04-25 11:46 | -34.16327 | 19.28189 | 13390 ft | 238 kts | 258° |
| 2026-04-25 11:47 | -34.16794 | 19.26264 | 13016 ft | 239 kts | 258° |
| 2026-04-25 11:47 | -34.17271 | 19.24341 | 12642 ft | 239 kts | 258° |
| 2026-04-25 11:47 | -34.17752 | 19.22418 | 12269 ft | 239 kts | 258° |
| 2026-04-25 11:47 | -34.18236 | 19.20496 | 11891 ft | 238 kts | 258° |
| 2026-04-25 11:48 | -34.18720 | 19.18589 | 11519 ft | 237 kts | 258° |
| 2026-04-25 11:48 | -34.19196 | 19.16707 | 11146 ft | 237 kts | 258° |
| 2026-04-25 11:48 | -34.19677 | 19.14803 | 10772 ft | 236 kts | 257° |
| 2026-04-25 11:48 | -34.20163 | 19.12916 | 10346 ft | 235 kts | 258° |
| 2026-04-25 11:49 | -34.20657 | 19.11043 | 9844 ft | 233 kts | 258° |
| 2026-04-25 11:49 | -34.21156 | 19.09191 | 9356 ft | 231 kts | 258° |
| 2026-04-25 11:49 | -34.21658 | 19.07375 | 8979 ft | 225 kts | 257° |
| 2026-04-25 11:49 | -34.22150 | 19.05605 | 8603 ft | 219 kts | 258° |
| 2026-04-25 11:50 | -34.22634 | 19.03879 | 8229 ft | 215 kts | 258° |
| 2026-04-25 11:50 | -34.23108 | 19.02197 | 7858 ft | 213 kts | 258° |
| 2026-04-25 11:50 | -34.23589 | 19.00514 | 7477 ft | 210 kts | 258° |
| 2026-04-25 11:50 | -34.24059 | 18.98849 | 7106 ft | 208 kts | 258° |
| 2026-04-25 11:51 | -34.24526 | 18.97192 | 6724 ft | 208 kts | 258° |
| 2026-04-25 11:51 | -34.24994 | 18.95543 | 6355 ft | 207 kts | 258° |
| 2026-04-25 11:51 | -34.25462 | 18.93903 | 6029 ft | 204 kts | 257° |
| 2026-04-25 11:51 | -34.25908 | 18.92343 | 6015 ft | 188 kts | 257° |
| 2026-04-25 11:52 | -34.26308 | 18.90933 | 5944 ft | 170 kts | 258° |
| 2026-04-25 11:52 | -34.26696 | 18.89553 | 5545 ft | 177 kts | 259° |
| 2026-04-25 11:52 | -34.27103 | 18.88119 | 5139 ft | 183 kts | 258° |
| 2026-04-25 11:52 | -34.27506 | 18.86665 | 4834 ft | 183 kts | 258° |
| 2026-04-25 11:53 | -34.27911 | 18.85173 | 4528 ft | 190 kts | 257° |
| 2026-04-25 11:53 | -34.28307 | 18.83680 | 4518 ft | 184 kts | 257° |
| 2026-04-25 11:53 | -34.28695 | 18.82204 | 4516 ft | 186 kts | 258° |
| 2026-04-25 11:53 | -34.29044 | 18.80720 | 4511 ft | 179 kts | 269° |
| 2026-04-25 11:54 | -34.28745 | 18.79340 | 4515 ft | 169 kts | 306° |
| 2026-04-25 11:54 | -34.28010 | 18.78253 | 4518 ft | 167 kts | 313° |
| 2026-04-25 11:54 | -34.26474 | 18.76178 | 4516 ft | 164 kts | 313° |
| 2026-04-25 11:55 | -34.25710 | 18.75149 | 4515 ft | 163 kts | 313° |
| 2026-04-25 11:55 | -34.24948 | 18.74121 | 4517 ft | 169 kts | 313° |
| 2026-04-25 11:55 | -34.24149 | 18.73044 | 4523 ft | 179 kts | 313° |
| 2026-04-25 11:55 | -34.23297 | 18.71898 | 4523 ft | 186 kts | 313° |
| 2026-04-25 11:56 | -34.22417 | 18.70717 | 4523 ft | 191 kts | 313° |
| 2026-04-25 11:56 | -34.21518 | 18.69512 | 4518 ft | 195 kts | 313° |
| 2026-04-25 11:56 | -34.20532 | 18.68306 | 4192 ft | 208 kts | 323° |
| 2026-04-25 11:56 | -34.19243 | 18.67487 | 3869 ft | 211 kts | 338° |
| 2026-04-25 11:57 | -34.17835 | 18.66956 | 3561 ft | 211 kts | 343° |
| 2026-04-25 11:57 | -34.16417 | 18.66512 | 3314 ft | 210 kts | 344° |
| 2026-04-25 11:57 | -34.15011 | 18.66062 | 3062 ft | 208 kts | 343° |
| 2026-04-25 11:57 | -34.13661 | 18.65629 | 3017 ft | 198 kts | 344° |
| 2026-04-25 11:58 | -34.12354 | 18.65218 | 2877 ft | 188 kts | 344° |
| 2026-04-25 11:58 | -34.11141 | 18.64827 | 2645 ft | 174 kts | 343° |
| 2026-04-25 11:58 | -34.10006 | 18.64466 | 2422 ft | 163 kts | 344° |
| 2026-04-25 11:58 | -34.08936 | 18.64125 | 2209 ft | 155 kts | 344° |
| 2026-04-25 11:59 | -34.07920 | 18.63802 | 2010 ft | 148 kts | 344° |
| 2026-04-25 11:59 | -34.06936 | 18.63490 | 1816 ft | 145 kts | 344° |
| 2026-04-25 11:59 | -34.05972 | 18.63184 | 1626 ft | 141 kts | 344° |
| 2026-04-25 12:00 | -34.04098 | 18.62583 | 1256 ft | 137 kts | 345° |
| 2026-04-25 12:00 | -34.03212 | 18.62302 | 1085 ft | 123 kts | 345° |
| 2026-04-25 12:00 | -34.01757 | 18.61837 | 792 ft | 96 kts | 344° |
| 2026-04-25 12:01 | -34.01119 | 18.61632 | 667 ft | 94 kts | 345° |
| 2026-04-25 12:01 | -34.00482 | 18.61427 | 544 ft | 95 kts | 344° |
| 2026-04-25 12:01 | -33.99842 | 18.61226 | 416 ft | 95 kts | 345° |
| 2026-04-25 12:01 | -33.99213 | 18.61024 | 291 ft | 91 kts | 345° |
| 2026-04-25 12:02 | -33.98105 | 18.60673 | 192 ft | 66 kts | 346° |
| 2026-04-25 12:02 | -33.97871 | 18.60599 | 193 ft | 24 kts | 345° |
| 2026-04-25 12:02 | -33.97784 | 18.60478 | 189 ft | 13 kts | 284° |
| 2026-04-25 12:03 | -33.97750 | 18.60339 | 188 ft | 21 kts | 280° |
| 2026-04-25 12:03 | -33.97730 | 18.60237 | 188 ft | 5 kts | 278° |
| 2026-04-25 12:03 | -33.97742 | 18.60182 | 194 ft | 11 kts | 244° |
| 2026-04-25 12:03 | -33.97778 | 18.60069 | 190 ft | 14 kts | 252° |
| 2026-04-25 12:04 | -33.97819 | 18.59930 | 195 ft | 21 kts | 250° |
| 2026-04-25 12:04 | -33.97841 | 18.59832 | 201 ft | 8 kts | 303° |
| 2026-04-25 12:04 | -33.97788 | 18.59806 | 195 ft | 8 kts | 340° |
| 2026-04-25 12:04 | -33.97740 | 18.59800 | 197 ft | 7 kts | 34° |
| 2026-04-25 12:05 | -33.97711 | 18.59805 | 190 ft | 0 kts | 338° |